Terminal Aerodrome Forecast
Issued by NWS

Home | Current Version | Previous Version | Text Only | Print | Product List | Glossary Off
Versions: 1 2 3 4 5 6 7 8 9 10 11 12 13 14 15 16 17 18

000
FTUS43 KABR 242322
TAFMBG
TAF
KMBG 242322Z 2500/2524 34009KT P6SM SKC
     FM250300 36006KT P6SM SCT200
     FM251000 24004KT P6SM BKN130
     FM251700 22008KT P6SM BKN080
     FM252100 27008KT P6SM BKN035=

USA.gov is the U.S. government's official web portal to all federal, state and local government web resources and services.